createdAt,value
2023-03-06T00:01:00.109Z,17.60
2023-03-06T00:03:28.520Z,19.20
2023-03-06T00:05:59.250Z,19.20
2023-03-06T00:08:28.571Z,18.90
2023-03-06T00:11:03.763Z,18.30
2023-03-06T00:16:27.470Z,18.30
2023-03-06T00:18:55.845Z,18.80
2023-03-06T00:21:29.215Z,18.20
2023-03-06T00:23:58.162Z,17.60
2023-03-06T00:26:26.399Z,18.10
2023-03-06T00:28:55.046Z,17.20
2023-03-06T00:31:28.612Z,17.40
2023-03-06T00:33:58.536Z,18.20
2023-03-06T00:36:26.765Z,17.00
2023-03-06T00:38:59.290Z,16.60
2023-03-06T00:41:27.732Z,17.20
2023-03-06T00:43:56.216Z,17.40
2023-03-06T00:46:24.488Z,17.50
2023-03-06T00:48:52.873Z,18.10
2023-03-06T00:51:22.589Z,18.30
2023-03-06T00:53:51.090Z,17.60
2023-03-06T00:56:20.123Z,17.40
2023-03-06T00:58:49.664Z,17.60
2023-03-06T01:01:18.456Z,19.20
2023-03-06T01:03:46.911Z,17.70
2023-03-06T01:06:16.184Z,17.90
2023-03-06T01:08:45.005Z,18.10
2023-03-06T01:11:14.252Z,19.30
2023-03-06T01:13:42.673Z,19.90
2023-03-06T01:16:15.094Z,19.60
2023-03-06T01:18:43.844Z,19.60
2023-03-06T01:21:12.302Z,18.20
2023-03-06T01:23:42.180Z,18.80
2023-03-06T01:26:10.568Z,20.40
2023-03-06T01:28:40.883Z,20.20
2023-03-06T01:31:09.411Z,19.20
2023-03-06T01:33:38.301Z,22.90
2023-03-06T01:36:10.305Z,20.20
2023-03-06T01:38:39.837Z,25.30
2023-03-06T01:41:08.422Z,24.30
2023-03-06T01:43:39.370Z,21.30
2023-03-06T01:46:31.022Z,20.50
2023-03-06T01:49:11.268Z,21.50
2023-03-06T01:51:57.548Z,21.40
2023-03-06T01:54:34.342Z,20.80
2023-03-06T01:57:05.973Z,19.80
2023-03-06T01:59:35.034Z,23.50
2023-03-06T02:02:03.382Z,22.60
2023-03-06T02:04:31.920Z,22.20
2023-03-06T02:07:00.442Z,22.20
2023-03-06T02:09:31.186Z,22.60
2023-03-06T02:12:02.064Z,21.20
2023-03-06T02:14:30.867Z,21.40
2023-03-06T02:17:04.492Z,21.90
2023-03-06T02:19:52.534Z,21.20
2023-03-06T02:22:21.593Z,21.00
2023-03-06T02:25:03.562Z,21.90
2023-03-06T02:27:32.460Z,21.70
2023-03-06T02:30:06.999Z,20.50
2023-03-06T02:32:36.105Z,20.50
2023-03-06T02:35:07.305Z,20.60
2023-03-06T02:37:35.764Z,19.20
2023-03-06T02:40:08.617Z,20.00
2023-03-06T02:42:37.883Z,19.80
2023-03-06T02:45:06.982Z,20.70
2023-03-06T02:47:35.269Z,19.70
2023-03-06T02:50:05.864Z,19.30
2023-03-06T02:52:34.681Z,20.50
2023-03-06T02:55:04.330Z,19.90
2023-03-06T02:57:32.918Z,19.40
2023-03-06T03:00:01.705Z,20.90
2023-03-06T03:02:30.856Z,20.50
2023-03-06T03:04:59.785Z,20.50
2023-03-06T03:07:28.181Z,21.20
2023-03-06T03:09:56.436Z,20.40
2023-03-06T03:12:25.236Z,20.00
2023-03-06T03:14:53.601Z,19.90
2023-03-06T03:17:22.736Z,20.30
2023-03-06T03:19:54.263Z,21.00
2023-03-06T03:22:23.451Z,18.60
2023-03-06T03:24:52.529Z,19.10
2023-03-06T03:27:20.883Z,19.80
2023-03-06T03:29:49.210Z,19.50
2023-03-06T03:32:17.545Z,20.60
2023-03-06T03:34:46.166Z,19.40
2023-03-06T03:37:14.752Z,19.30
2023-03-06T03:39:43.829Z,21.50
2023-03-06T03:42:12.725Z,19.70
2023-03-06T03:44:42.364Z,20.40
2023-03-06T03:47:11.922Z,20.90
2023-03-06T03:49:40.715Z,20.40
2023-03-06T03:52:12.227Z,20.50
2023-03-06T03:54:43.229Z,20.20
2023-03-06T03:57:11.526Z,21.20
2023-03-06T04:02:27.676Z,20.70
2023-03-06T04:05:05.360Z,20.80
2023-03-06T04:07:34.209Z,20.60
2023-03-06T04:10:02.804Z,19.50
2023-03-06T04:12:31.926Z,21.30
2023-03-06T04:15:08.932Z,20.90
2023-03-06T04:17:38.313Z,19.90
2023-03-06T04:20:09.398Z,20.50
2023-03-06T04:22:39.046Z,20.60
2023-03-06T04:25:07.833Z,20.90
2023-03-06T04:27:37.887Z,20.20
2023-03-06T04:30:07.495Z,20.50
2023-03-06T04:32:43.936Z,19.60
2023-03-06T04:35:12.564Z,19.80
2023-03-06T04:38:01.227Z,20.10
2023-03-06T04:40:32.710Z,21.30
2023-03-06T04:43:02.528Z,19.70
2023-03-06T04:45:31.310Z,19.70
2023-03-06T04:48:01.852Z,19.80
2023-03-06T04:50:32.757Z,19.60
2023-03-06T04:53:03.683Z,18.50
2023-03-06T04:55:33.376Z,18.80
2023-03-06T04:58:02.341Z,19.20
2023-03-06T05:00:31.875Z,18.90
2023-03-06T05:03:00.995Z,20.30
2023-03-06T05:05:32.687Z,21.10
2023-03-06T05:08:00.974Z,24.00
2023-03-06T05:10:33.556Z,24.60
2023-03-06T05:13:27.192Z,19.70
2023-03-06T05:18:23.653Z,16.70
2023-03-06T05:20:51.868Z,16.70
2023-03-06T05:23:20.693Z,18.80
2023-03-06T05:25:49.701Z,19.80
2023-03-06T05:28:19.575Z,22.00
2023-03-06T05:30:52.698Z,25.80
2023-03-06T05:33:21.903Z,23.00
2023-03-06T05:35:56.555Z,21.50
2023-03-06T05:38:26.229Z,22.90
2023-03-06T05:40:54.744Z,23.60
2023-03-06T05:43:23.804Z,18.70
2023-03-06T05:45:53.239Z,18.50
2023-03-06T05:48:21.570Z,17.80
2023-03-06T05:50:56.543Z,18.60
2023-03-06T05:56:04.154Z,18.00
2023-03-06T05:58:33.845Z,19.10
2023-03-06T06:01:09.530Z,18.10
2023-03-06T06:03:37.953Z,17.10
2023-03-06T06:06:07.680Z,16.30
2023-03-06T06:08:37.837Z,16.40
2023-03-06T06:11:07.538Z,18.10
2023-03-06T06:13:38.737Z,16.70
2023-03-06T06:16:19.253Z,16.70
2023-03-06T06:18:48.336Z,19.50
2023-03-06T06:21:20.029Z,19.00
2023-03-06T06:23:48.796Z,17.90
2023-03-06T06:26:16.978Z,18.00
2023-03-06T06:28:45.550Z,16.80
2023-03-06T06:31:13.902Z,16.80
2023-03-06T06:33:43.273Z,15.80
2023-03-06T06:36:20.797Z,15.60
2023-03-06T06:38:51.048Z,16.00
2023-03-06T06:41:51.074Z,17.80
2023-03-06T06:44:10.773Z,15.80
2023-03-06T06:47:23.570Z,14.20
2023-03-06T06:49:54.268Z,14.30
2023-03-06T06:52:23.857Z,11.00
2023-03-06T06:54:53.034Z,9.40
2023-03-06T06:57:22.159Z,8.90
2023-03-06T06:59:52.579Z,9.00
2023-03-06T07:02:23.364Z,11.40
2023-03-06T07:05:06.937Z,8.90
2023-03-06T07:07:36.970Z,9.40
2023-03-06T07:10:12.934Z,7.60
2023-03-06T07:12:45.910Z,8.40
2023-03-06T07:15:15.628Z,7.20
2023-03-06T07:17:43.911Z,8.00
2023-03-06T07:20:14.665Z,8.80
2023-03-06T07:22:51.200Z,7.90
2023-03-06T07:25:21.771Z,8.20
2023-03-06T07:27:54.665Z,8.40
2023-03-06T07:30:23.497Z,8.10
2023-03-06T07:32:55.178Z,8.80
2023-03-06T07:35:24.487Z,7.40
2023-03-06T07:37:53.836Z,7.50
2023-03-06T07:40:23.965Z,7.90
2023-03-06T07:43:06.094Z,8.30
2023-03-06T07:45:47.246Z,7.80
2023-03-06T07:48:16.514Z,6.60
2023-03-06T07:50:44.803Z,5.80
2023-03-06T07:53:13.009Z,5.30
2023-03-06T07:55:41.938Z,5.00
2023-03-06T07:58:10.188Z,6.80
2023-03-06T08:00:38.409Z,5.90
2023-03-06T08:03:07.222Z,7.20
2023-03-06T08:05:36.213Z,6.70
2023-03-06T08:08:04.631Z,6.00
2023-03-06T08:10:32.979Z,6.40
2023-03-06T08:13:03.615Z,6.20
2023-03-06T08:15:57.335Z,6.70
2023-03-06T08:18:27.791Z,6.40
2023-03-06T08:21:06.557Z,7.70
2023-03-06T08:23:43.432Z,7.80
2023-03-06T08:26:22.979Z,7.20
2023-03-06T08:28:52.550Z,7.10
2023-03-06T08:31:35.537Z,7.60
2023-03-06T08:34:29.089Z,7.00
2023-03-06T08:37:28.938Z,6.70
2023-03-06T08:42:26.240Z,6.60
2023-03-06T08:44:54.590Z,6.80
2023-03-06T08:47:22.836Z,7.70
2023-03-06T08:49:51.016Z,8.20
2023-03-06T08:52:20.174Z,8.00
2023-03-06T08:54:48.362Z,7.00
2023-03-06T08:57:43.915Z,7.70
2023-03-06T09:00:17.362Z,7.70
2023-03-06T09:02:45.840Z,8.30
2023-03-06T09:05:14.789Z,8.20
2023-03-06T09:07:43.429Z,8.80
2023-03-06T09:10:18.516Z,8.80
2023-03-06T09:12:52.068Z,8.30
2023-03-06T09:15:22.882Z,8.60
2023-03-06T09:17:52.418Z,7.40
2023-03-06T09:20:21.446Z,7.60
2023-03-06T09:22:49.651Z,8.10
2023-03-06T09:28:14.355Z,9.30
2023-03-06T09:30:45.120Z,9.10
2023-03-06T09:33:15.034Z,10.00
2023-03-06T09:35:51.175Z,9.20
2023-03-06T09:38:20.600Z,8.70
2023-03-06T09:41:01.980Z,9.60
2023-03-06T09:43:50.493Z,7.90
2023-03-06T09:46:35.338Z,7.50
2023-03-06T09:49:45.363Z,5.80
2023-03-06T09:52:28.464Z,6.20
2023-03-06T09:55:23.636Z,6.70
2023-03-06T09:58:16.069Z,5.90
2023-03-06T10:01:12.581Z,6.30
2023-03-06T10:03:49.969Z,7.00
2023-03-06T10:06:24.638Z,6.30
2023-03-06T10:08:58.231Z,7.30
2023-03-06T10:11:44.246Z,7.00
2023-03-06T10:14:12.670Z,6.30
2023-03-06T10:16:41.034Z,5.80
2023-03-06T10:21:18.707Z,4.90
2023-03-06T10:23:54.082Z,4.20
2023-03-06T10:26:28.282Z,4.50
2023-03-06T10:29:35.454Z,5.30
2023-03-06T10:32:51.864Z,4.90
2023-03-06T10:35:22.864Z,3.10
2023-03-06T10:37:51.628Z,3.20
2023-03-06T10:40:28.404Z,3.70
2023-03-06T10:43:10.847Z,3.60
2023-03-06T10:45:49.488Z,4.40
2023-03-06T10:48:26.804Z,5.30
2023-03-06T10:51:18.126Z,4.70
2023-03-06T10:53:55.446Z,5.50
2023-03-06T10:56:32.013Z,5.60
2023-03-06T10:59:14.559Z,4.50
2023-03-06T11:01:52.858Z,5.30
2023-03-06T11:04:22.341Z,5.10
2023-03-06T11:07:17.385Z,4.20
2023-03-06T11:09:59.136Z,5.70
2023-03-06T11:12:35.926Z,5.40
2023-03-06T11:15:10.714Z,5.70
2023-03-06T11:18:09.313Z,4.40
2023-03-06T11:20:52.575Z,3.90
2023-03-06T11:23:46.847Z,7.00
2023-03-06T11:26:18.327Z,5.40
2023-03-06T11:29:08.720Z,4.60
2023-03-06T11:31:39.721Z,3.90
2023-03-06T11:34:11.743Z,4.30
2023-03-06T11:37:06.105Z,4.20
2023-03-06T11:39:43.868Z,3.80
2023-03-06T11:43:00.301Z,3.80
2023-03-06T11:45:48.682Z,3.80
2023-03-06T11:48:40.040Z,4.50
2023-03-06T11:51:45.655Z,5.00
2023-03-06T11:54:14.513Z,4.50
2023-03-06T11:56:48.758Z,4.50
2023-03-06T12:00:08.502Z,5.40
2023-03-06T12:02:57.431Z,6.40
2023-03-06T12:05:39.641Z,4.30
2023-03-06T12:08:22.133Z,4.20
2023-03-06T12:10:58.365Z,4.40
2023-03-06T12:13:43.399Z,4.70
2023-03-06T12:16:35.650Z,4.40
2023-03-06T12:19:16.380Z,4.80
2023-03-06T12:21:47.904Z,4.80
2023-03-06T12:24:28.174Z,5.00
2023-03-06T12:27:24.906Z,5.10
2023-03-06T12:30:02.079Z,4.70
2023-03-06T12:33:00.405Z,5.30
2023-03-06T12:35:42.558Z,5.00
2023-03-06T12:38:53.341Z,5.30
2023-03-06T12:41:40.177Z,4.50
2023-03-06T12:44:11.571Z,4.50
2023-03-06T12:46:43.663Z,4.70
2023-03-06T12:49:31.384Z,4.50
2023-03-06T12:52:01.478Z,4.40
2023-03-06T12:54:31.110Z,4.90
2023-03-06T12:56:59.787Z,4.40
2023-03-06T12:59:48.706Z,4.40
2023-03-06T13:02:50.964Z,4.90
2023-03-06T13:05:49.619Z,4.70
2023-03-06T13:08:44.348Z,4.70
2023-03-06T13:11:41.300Z,4.70
2023-03-06T13:14:54.938Z,4.60
2023-03-06T13:17:23.453Z,4.70
2023-03-06T13:20:23.592Z,4.80
2023-03-06T13:22:51.992Z,4.80
2023-03-06T13:25:20.355Z,5.20
2023-03-06T13:27:54.779Z,4.90
2023-03-06T13:30:39.534Z,4.90
2023-03-06T13:33:27.217Z,4.90
2023-03-06T13:35:55.627Z,5.30
2023-03-06T13:38:40.763Z,4.90
2023-03-06T13:41:32.222Z,5.30
2023-03-06T13:44:06.453Z,5.10
2023-03-06T13:46:36.296Z,5.10
2023-03-06T13:49:08.534Z,5.40
2023-03-06T13:51:53.525Z,5.00
2023-03-06T13:54:34.236Z,5.90
2023-03-06T13:57:18.461Z,6.00
2023-03-06T14:00:08.222Z,5.20
2023-03-06T14:02:58.943Z,5.10
2023-03-06T14:05:36.040Z,5.60
2023-03-06T14:08:19.936Z,5.20
2023-03-06T14:10:49.592Z,5.10
2023-03-06T14:13:32.354Z,5.10
2023-03-06T14:16:13.268Z,5.30
2023-03-06T14:18:47.878Z,5.10
2023-03-06T14:21:21.789Z,5.50
2023-03-06T14:24:01.782Z,5.60
2023-03-06T14:26:45.423Z,5.30
2023-03-06T14:29:24.495Z,5.40
2023-03-06T14:31:59.678Z,5.40
2023-03-06T14:34:33.531Z,5.90
2023-03-06T14:37:05.701Z,5.70
2023-03-06T14:40:02.620Z,5.50
2023-03-06T14:42:31.150Z,5.50
2023-03-06T14:45:19.257Z,5.20
2023-03-06T14:47:52.147Z,6.60
2023-03-06T14:50:25.122Z,10.00
2023-03-06T14:52:56.841Z,8.00
2023-03-06T14:55:26.836Z,7.10
2023-03-06T14:58:07.656Z,6.40
2023-03-06T15:00:41.435Z,6.50
2023-03-06T15:03:16.636Z,7.70
2023-03-06T15:05:48.500Z,8.40
2023-03-06T15:08:23.954Z,8.50
2023-03-06T15:11:03.971Z,11.30
2023-03-06T15:13:35.940Z,8.20
2023-03-06T15:16:14.736Z,8.30
2023-03-06T15:19:03.123Z,8.10
2023-03-06T15:21:36.749Z,7.30
2023-03-06T15:24:31.817Z,8.30
2023-03-06T15:27:03.058Z,8.30
2023-03-06T15:29:32.260Z,7.60
2023-03-06T15:32:32.863Z,7.70
2023-03-06T15:35:26.210Z,6.90
2023-03-06T15:37:55.126Z,7.30
2023-03-06T15:40:25.058Z,6.90
2023-03-06T15:42:54.244Z,7.50
2023-03-06T15:45:23.768Z,7.90
2023-03-06T15:47:54.487Z,7.20
2023-03-06T15:50:27.181Z,7.50
2023-03-06T15:52:55.515Z,7.80
2023-03-06T15:55:26.231Z,8.30
2023-03-06T15:58:00.087Z,10.50
2023-03-06T16:02:58.574Z,25.20
2023-03-06T16:05:31.831Z,24.70
2023-03-06T16:10:30.280Z,16.10
2023-03-06T16:13:06.986Z,13.70
2023-03-06T16:16:00.597Z,11.80
2023-03-06T16:18:38.032Z,13.10
2023-03-06T16:21:06.994Z,12.10
2023-03-06T16:23:39.010Z,13.80
2023-03-06T16:26:18.250Z,15.70
2023-03-06T16:28:54.393Z,17.10
2023-03-06T16:31:23.361Z,19.30
2023-03-06T16:33:53.298Z,24.40
2023-03-06T16:36:27.295Z,24.70
2023-03-06T16:38:55.645Z,26.20
2023-03-06T16:41:23.973Z,26.10
2023-03-06T16:43:52.443Z,20.30
2023-03-06T16:46:22.577Z,17.60
2023-03-06T16:48:51.354Z,16.60
2023-03-06T16:51:21.108Z,14.40
2023-03-06T16:53:51.171Z,16.00
2023-03-06T16:56:20.649Z,22.80
2023-03-06T16:58:49.028Z,23.90
2023-03-06T17:01:18.671Z,22.10
2023-03-06T17:03:47.273Z,21.60
2023-03-06T17:06:18.601Z,21.50
2023-03-06T17:08:48.610Z,20.60
2023-03-06T17:11:23.452Z,20.00
2023-03-06T17:13:59.903Z,18.90
2023-03-06T17:16:28.842Z,18.90
2023-03-06T17:19:22.607Z,18.10
2023-03-06T17:21:50.930Z,20.50
2023-03-06T17:24:22.526Z,23.90
2023-03-06T17:26:55.032Z,21.30
2023-03-06T17:29:25.283Z,22.30
2023-03-06T17:31:55.371Z,21.90
2023-03-06T17:34:25.470Z,17.00
2023-03-06T17:36:53.931Z,13.50
2023-03-06T17:39:23.908Z,12.50
2023-03-06T17:41:52.928Z,11.30
2023-03-06T17:44:21.608Z,22.10
2023-03-06T17:46:50.435Z,21.00
2023-03-06T17:49:22.559Z,15.30
2023-03-06T17:51:58.501Z,17.20
2023-03-06T17:54:27.356Z,21.70
2023-03-06T17:56:56.666Z,22.30
2023-03-06T17:59:28.290Z,23.10
2023-03-06T18:01:58.639Z,21.70
2023-03-06T18:04:27.174Z,20.80
2023-03-06T18:07:00.195Z,20.20
2023-03-06T18:11:57.395Z,23.50
2023-03-06T18:14:30.933Z,51.10
2023-03-06T18:17:00.631Z,26.30
2023-03-06T18:19:29.608Z,32.60
2023-03-06T18:21:59.210Z,25.80
2023-03-06T18:24:28.012Z,25.50
2023-03-06T18:26:56.496Z,20.70
2023-03-06T18:29:27.001Z,19.70
2023-03-06T18:31:57.115Z,18.60
2023-03-06T18:34:25.472Z,15.70
2023-03-06T18:36:55.740Z,13.00
2023-03-06T18:39:24.325Z,11.90
2023-03-06T18:41:53.761Z,11.60
2023-03-06T18:44:27.877Z,12.10
2023-03-06T18:46:56.198Z,14.60
2023-03-06T18:49:25.589Z,16.30
2023-03-06T18:51:54.950Z,16.50
2023-03-06T18:54:25.495Z,15.10
2023-03-06T18:56:53.842Z,14.90
2023-03-06T18:59:45.364Z,16.80
2023-03-06T19:02:13.777Z,14.40
2023-03-06T19:04:42.056Z,14.80
2023-03-06T19:07:12.783Z,14.50
2023-03-06T19:09:43.005Z,12.90
2023-03-06T19:12:11.822Z,13.40
2023-03-06T19:14:40.804Z,12.20
2023-03-06T19:17:09.361Z,12.50
2023-03-06T19:19:38.759Z,12.90
2023-03-06T19:22:08.261Z,28.50
2023-03-06T19:24:36.793Z,24.50
2023-03-06T19:27:05.551Z,19.60
2023-03-06T19:29:33.869Z,14.20
2023-03-06T19:32:03.627Z,12.10
2023-03-06T19:34:33.367Z,12.00
2023-03-06T19:37:03.861Z,14.70
2023-03-06T19:39:33.523Z,15.20
2023-03-06T19:42:04.871Z,15.60
2023-03-06T19:44:34.082Z,14.40
2023-03-06T19:47:02.260Z,14.60
2023-03-06T19:49:38.423Z,13.90
2023-03-06T19:52:07.696Z,12.90
2023-03-06T19:54:36.921Z,12.30
2023-03-06T19:57:06.194Z,13.80
2023-03-06T20:00:02.199Z,13.00
2023-03-06T20:02:41.400Z,13.10
2023-03-06T20:05:09.961Z,13.50
2023-03-06T20:07:38.535Z,12.90
2023-03-06T20:10:09.097Z,13.00
2023-03-06T20:12:38.413Z,12.30
2023-03-06T20:15:07.650Z,11.60
2023-03-06T20:17:37.073Z,10.50
2023-03-06T20:20:06.028Z,10.90
2023-03-06T20:22:34.586Z,11.20
2023-03-06T20:25:06.305Z,10.70
2023-03-06T20:27:34.945Z,10.90
2023-03-06T20:30:03.703Z,10.40
2023-03-06T20:32:33.472Z,11.20
2023-03-06T20:35:07.260Z,10.80
2023-03-06T20:37:35.676Z,11.10
2023-03-06T20:40:04.785Z,11.60
2023-03-06T20:42:33.679Z,10.50
2023-03-06T20:45:01.966Z,11.20
2023-03-06T20:47:36.276Z,10.40
2023-03-06T20:50:07.457Z,10.20
2023-03-06T20:52:40.529Z,10.50
2023-03-06T20:55:10.750Z,11.30
2023-03-06T20:57:39.901Z,12.00
2023-03-06T21:00:09.116Z,11.40
2023-03-06T21:02:37.469Z,10.80
2023-03-06T21:05:13.006Z,10.70
2023-03-06T21:07:41.652Z,11.70
2023-03-06T21:10:10.490Z,11.70
2023-03-06T21:12:39.020Z,12.80
2023-03-06T21:15:08.464Z,12.40
2023-03-06T21:17:36.878Z,12.50
2023-03-06T21:20:06.833Z,12.50
2023-03-06T21:22:35.321Z,12.70
2023-03-06T21:25:09.214Z,13.10
2023-03-06T21:27:38.102Z,31.60
2023-03-06T21:30:07.360Z,29.40
2023-03-06T21:32:36.152Z,17.00
2023-03-06T21:35:04.756Z,15.80
2023-03-06T21:37:36.626Z,14.10
2023-03-06T21:40:08.140Z,13.00
2023-03-06T21:42:36.443Z,12.50
2023-03-06T21:45:05.798Z,13.20
2023-03-06T21:47:59.724Z,15.00
2023-03-06T21:50:28.114Z,14.90
2023-03-06T21:52:59.565Z,15.50
2023-03-06T21:55:27.777Z,15.50
2023-03-06T21:57:56.595Z,13.40
2023-03-06T22:00:26.239Z,11.80
2023-03-06T22:02:55.829Z,15.10
2023-03-06T22:05:26.963Z,17.50
2023-03-06T22:07:55.222Z,16.10
2023-03-06T22:10:23.487Z,15.60
2023-03-06T22:12:53.294Z,14.00
2023-03-06T22:15:24.230Z,16.30
2023-03-06T22:18:01.243Z,14.90
2023-03-06T22:20:29.777Z,14.10
2023-03-06T22:22:58.439Z,13.60
2023-03-06T22:25:26.833Z,11.90
2023-03-06T22:27:55.253Z,11.40
2023-03-06T22:30:23.464Z,12.00
2023-03-06T22:32:54.756Z,12.60
2023-03-06T22:35:23.029Z,11.10
2023-03-06T22:38:45.165Z,13.00
2023-03-06T22:41:15.023Z,12.60
2023-03-06T22:43:43.680Z,13.50
2023-03-06T22:46:13.748Z,12.30
2023-03-06T22:48:42.881Z,11.80
2023-03-06T22:51:16.157Z,11.10
2023-03-06T22:53:45.667Z,10.60
2023-03-06T22:56:17.291Z,9.90
2023-03-06T22:58:46.893Z,9.80
2023-03-06T23:01:23.461Z,10.20
2023-03-06T23:03:53.518Z,10.90
2023-03-06T23:06:35.723Z,10.30
2023-03-06T23:09:06.434Z,10.50
2023-03-06T23:11:54.342Z,10.30
2023-03-06T23:14:43.855Z,10.20
2023-03-06T23:17:34.490Z,10.80
2023-03-06T23:20:22.154Z,10.90
2023-03-06T23:23:10.445Z,11.00
2023-03-06T23:25:44.615Z,11.00
2023-03-06T23:28:13.029Z,11.30
2023-03-06T23:30:42.018Z,10.60
2023-03-06T23:33:10.768Z,10.10
2023-03-06T23:35:40.543Z,10.10
2023-03-06T23:38:08.939Z,10.50
2023-03-06T23:40:38.735Z,9.90
2023-03-06T23:43:07.332Z,9.20
2023-03-06T23:45:36.867Z,9.70
2023-03-06T23:48:08.034Z,9.50
2023-03-06T23:50:39.765Z,9.50
2023-03-06T23:53:08.701Z,10.00
2023-03-06T23:55:44.488Z,9.70
2023-03-06T23:58:17.556Z,9.70
